Time;durP1;ratioP1;P1;durP2;ratioP2;P2;SDS_P1;SDS_P2;PMS_P1;PMS_P2;Temp;Humidity;BMP_temperature;BMP_pressure;BME280_temperature;BME280_humidity;BME280_pressure;Samples;Min_cycle;Max_cycle;Signal;HPM_P1;HPM_P2
2020/12/02 00:01:44;;;;;;;13.20;6.45;;;3.70;1.00;;;;;;5084510;28;20521;-77
2020/12/02 00:04:31;;;;;;;19.27;7.10;;;3.70;1.00;;;;;;5074307;28;20596;-77
2020/12/02 00:07:01;;;;;;;14.10;6.43;;;3.70;1.00;;;;;;5074163;28;20159;-77
2020/12/02 00:09:27;;;;;;;23.30;7.40;;;3.60;1.00;;;;;;5089793;28;20179;-77
2020/12/02 00:12:07;;;;;;;17.50;7.00;;;3.70;1.00;;;;;;5073160;28;20163;-76
2020/12/02 00:14:33;;;;;;;18.30;7.05;;;3.70;1.00;;;;;;5074232;28;20170;-76
2020/12/02 00:17:01;;;;;;;21.43;7.03;;;3.70;1.00;;;;;;5074158;28;20198;-76
2020/12/02 00:19:31;;;;;;;17.27;7.47;;;3.70;1.00;;;;;;5080927;28;20436;-76
2020/12/02 00:22:20;;;;;;;16.67;6.80;;;3.70;1.00;;;;;;5074028;28;20621;-75
2020/12/02 00:24:46;;;;;;;21.88;8.13;;;3.70;1.00;;;;;;5083722;28;20163;-76
2020/12/02 00:27:27;;;;;;;23.75;7.70;;;3.60;1.00;;;;;;5084323;28;20170;-76
2020/12/02 00:30:11;;;;;;;32.00;8.05;;;3.60;1.00;;;;;;5093125;28;20162;-76
2020/12/02 00:32:41;;;;;;;21.95;7.75;;;3.60;1.00;;;;;;5087861;28;20644;-76
2020/12/02 00:35:19;;;;;;;21.13;7.45;;;3.60;1.00;;;;;;5094023;28;20605;-75
2020/12/02 00:38:14;;;;;;;21.25;8.27;;;3.70;1.00;;;;;;5092767;28;20255;-76
2020/12/02 00:40:46;;;;;;;23.10;8.35;;;3.60;1.00;;;;;;5094643;28;20195;-76
2020/12/02 00:43:16;;;;;;;16.40;7.35;;;3.60;1.00;;;;;;5094136;28;20237;-76
2020/12/02 00:45:43;;;;;;;18.33;7.38;;;3.60;1.00;;;;;;5084524;28;20174;-76
2020/12/02 00:48:17;;;;;;;24.25;8.65;;;3.60;1.00;;;;;;5073656;28;20175;-75
2020/12/02 00:50:42;;;;;;;22.60;9.18;;;3.60;1.00;;;;;;5073489;28;20606;-76
2020/12/02 00:53:22;;;;;;;21.97;9.60;;;3.60;1.00;;;;;;5073222;28;20256;-75
2020/12/02 00:55:51;;;;;;;20.17;7.50;;;3.60;1.00;;;;;;5073208;28;20261;-77
2020/12/02 00:58:49;;;;;;;19.80;8.15;;;3.80;1.00;;;;;;5092711;28;20224;-77
2020/12/02 01:01:37;;;;;;;17.00;7.45;;;3.70;1.00;;;;;;5091899;28;20208;-77
2020/12/02 01:04:15;;;;;;;21.48;9.13;;;3.70;1.00;;;;;;5073544;28;20160;-77
2020/12/02 01:06:51;;;;;;;19.10;7.50;;;3.70;1.00;;;;;;5072344;28;20519;-77
2020/12/02 01:09:20;;;;;;;23.00;7.57;;;3.70;1.00;;;;;;5088405;28;20193;-77
2020/12/02 01:11:48;;;;;;;24.05;7.93;;;3.70;1.00;;;;;;5093833;28;20675;-76
2020/12/02 01:14:26;;;;;;;16.35;8.20;;;3.70;1.00;;;;;;5073925;28;20232;-75
2020/12/02 01:16:54;;;;;;;20.92;8.98;;;3.70;1.00;;;;;;5072457;28;20240;-76
2020/12/02 01:19:29;;;;;;;20.98;8.88;;;3.70;1.00;;;;;;5077395;28;20172;-75
2020/12/02 01:22:04;;;;;;;18.00;7.85;;;3.80;1.00;;;;;;5073534;28;20163;-76
2020/12/02 01:24:59;;;;;;;21.02;9.02;;;3.80;1.00;;;;;;5077593;28;20506;-76
2020/12/02 01:27:54;;;;;;;16.48;7.95;;;3.80;1.00;;;;;;5094336;28;20186;-77
2020/12/02 01:30:33;;;;;;;17.60;7.28;;;3.80;1.00;;;;;;5073500;28;20218;-77
2020/12/02 01:33:02;;;;;;;17.63;8.40;;;3.80;1.00;;;;;;5073536;28;20598;-77
2020/12/02 01:35:30;;;;;;;19.25;9.00;;;3.90;1.00;;;;;;5083696;28;20193;-77
2020/12/02 01:38:05;;;;;;;29.20;8.43;;;3.90;1.00;;;;;;5093562;28;20210;-77
2020/12/02 01:40:34;;;;;;;19.60;8.05;;;3.90;1.00;;;;;;5093671;28;20203;-77
2020/12/02 01:43:06;;;;;;;20.15;8.48;;;3.90;1.00;;;;;;5086847;28;20163;-76
2020/12/02 01:45:41;;;;;;;27.27;8.90;;;3.90;1.00;;;;;;5073230;28;20209;-76
2020/12/02 01:48:38;;;;;;;18.98;8.13;;;3.90;1.00;;;;;;5085879;28;20174;-75
2020/12/02 01:51:37;;;;;;;22.33;7.65;;;3.90;1.00;;;;;;5092737;28;20171;-76
2020/12/02 01:54:51;;;;;;;24.08;8.20;;;3.90;1.00;;;;;;5083478;28;20171;-76
2020/12/02 01:57:27;;;;;;;16.50;8.02;;;3.90;1.00;;;;;;5011555;28;20606;-77
2020/12/02 02:00:12;;;;;;;21.33;6.82;;;3.90;1.00;;;;;;5011470;28;20536;-77
2020/12/02 02:03:05;;;;;;;15.75;7.05;;;3.90;1.00;;;;;;5015031;28;20177;-77
2020/12/02 02:06:08;;;;;;;18.73;6.68;;;3.80;1.00;;;;;;5014513;28;20657;-77
2020/12/02 02:09:08;;;;;;;17.35;7.47;;;3.90;1.00;;;;;;5014557;28;20184;-77
2020/12/02 02:11:41;;;;;;;15.20;6.90;;;3.80;1.00;;;;;;5015391;28;20176;-76
2020/12/02 02:14:39;;;;;;;19.67;9.35;;;3.80;1.00;;;;;;5006978;28;20193;-76
2020/12/02 02:17:13;;;;;;;15.40;7.47;;;3.80;1.00;;;;;;5005280;28;20193;-76
2020/12/02 02:19:57;;;;;;;18.48;7.25;;;3.80;1.00;;;;;;4994874;28;20198;-76
2020/12/02 02:22:31;;;;;;;18.13;8.63;;;3.80;1.00;;;;;;5013080;28;20200;-76
2020/12/02 02:24:57;;;;;;;18.75;7.63;;;3.80;1.00;;;;;;5008659;28;20188;-76
2020/12/02 02:27:26;;;;;;;16.97;8.07;;;3.70;1.00;;;;;;4998044;28;20196;-77
2020/12/02 02:30:08;;;;;;;17.60;8.20;;;3.70;1.00;;;;;;5014820;28;20169;-77
2020/12/02 02:32:50;;;;;;;16.00;6.90;;;3.70;1.00;;;;;;5013059;28;20173;-77
2020/12/02 02:35:20;;;;;;;18.00;7.63;;;3.70;1.00;;;;;;5075799;28;20229;-78
2020/12/02 02:37:45;;;;;;;20.90;8.00;;;3.70;1.00;;;;;;5092877;28;20237;-77
2020/12/02 02:40:14;;;;;;;15.93;7.30;;;3.70;1.00;;;;;;5085863;28;20204;-77
2020/12/02 02:42:48;;;;;;;22.20;8.45;;;3.70;1.00;;;;;;5091609;28;20217;-77
2020/12/02 02:45:32;;;;;;;15.68;7.53;;;3.70;1.00;;;;;;5075640;28;20221;-77
2020/12/02 02:48:06;;;;;;;17.98;6.95;;;3.70;1.00;;;;;;5075959;28;20156;-76
2020/12/02 02:51:07;;;;;;;19.67;6.65;;;3.70;1.00;;;;;;5095554;28;20162;-77
2020/12/02 02:53:33;;;;;;;13.90;7.28;;;3.70;1.00;;;;;;5095654;28;20243;-77
2020/12/02 02:56:11;;;;;;;16.73;7.27;;;3.70;1.00;;;;;;5096099;28;20205;-77
2020/12/02 02:58:37;;;;;;;16.50;7.20;;;3.60;1.00;;;;;;5094996;28;20405;-76
2020/12/02 03:01:03;;;;;;;14.82;6.53;;;3.60;1.00;;;;;;5086566;28;20179;-75
2020/12/02 03:03:30;;;;;;;12.93;6.20;;;3.60;1.00;;;;;;5085017;28;20352;-76
2020/12/02 03:06:01;;;;;;;15.95;6.75;;;3.60;1.00;;;;;;5095869;28;20296;-76
2020/12/02 03:08:27;;;;;;;14.02;6.63;;;3.60;1.00;;;;;;5081742;28;20179;-75
2020/12/02 03:10:57;;;;;;;14.43;7.30;;;3.60;1.00;;;;;;5095341;28;20685;-76
2020/12/02 03:13:32;;;;;;;14.98;6.82;;;3.50;1.00;;;;;;5092872;28;20503;-76
2020/12/02 03:16:29;;;;;;;16.23;6.97;;;3.50;1.00;;;;;;5079391;28;20534;-76
2020/12/02 03:18:59;;;;;;;20.13;6.78;;;3.50;1.00;;;;;;5080487;28;20194;-76
2020/12/02 03:21:25;;;;;;;19.83;7.80;;;3.50;1.00;;;;;;5095447;28;20162;-76
2020/12/02 03:23:52;;;;;;;18.58;7.57;;;3.50;1.00;;;;;;5082452;28;20171;-76
2020/12/02 03:26:20;;;;;;;13.05;6.30;;;3.50;1.00;;;;;;5074981;28;20165;-76
2020/12/02 03:28:55;;;;;;;21.90;8.30;;;3.50;1.00;;;;;;5075634;28;20195;-77
2020/12/02 03:31:37;;;;;;;19.00;6.47;;;3.50;1.00;;;;;;5074842;28;20155;-77
2020/12/02 03:34:08;;;;;;;11.55;6.25;;;3.50;1.00;;;;;;5074715;28;20823;-77
2020/12/02 03:36:34;;;;;;;17.25;7.65;;;3.50;1.00;;;;;;5079013;28;20210;-77
2020/12/02 03:39:03;;;;;;;21.50;7.43;;;3.50;1.00;;;;;;5094938;28;20250;-77
2020/12/02 03:41:29;;;;;;;20.23;8.10;;;3.50;1.00;;;;;;5093908;28;20170;-77
2020/12/02 03:43:55;;;;;;;16.80;7.53;;;3.50;1.00;;;;;;5095313;28;20167;-77
2020/12/02 03:47:01;;;;;;;14.40;7.25;;;3.50;1.00;;;;;;5094681;28;20513;-77
2020/12/02 03:49:37;;;;;;;20.40;7.03;;;3.50;1.00;;;;;;5094889;28;20184;-77
2020/12/02 03:52:13;;;;;;;17.13;7.53;;;3.50;1.00;;;;;;5093259;28;20166;-77
2020/12/02 03:55:01;;;;;;;18.33;7.60;;;3.50;1.00;;;;;;5075551;28;20194;-77
2020/12/02 03:57:31;;;;;;;15.98;7.78;;;3.60;1.00;;;;;;5074504;28;20199;-77
2020/12/02 04:00:09;;;;;;;19.33;6.88;;;3.50;1.00;;;;;;5074758;28;20183;-77
2020/12/02 04:02:38;;;;;;;18.33;7.82;;;3.60;1.00;;;;;;5079575;28;20178;-77
2020/12/02 04:05:08;;;;;;;16.95;7.50;;;3.60;1.00;;;;;;5074306;28;20163;-77
2020/12/02 04:07:43;;;;;;;22.70;8.70;;;3.50;1.00;;;;;;5074272;28;20604;-78
2020/12/02 04:10:13;;;;;;;17.60;7.72;;;3.50;1.00;;;;;;5072971;28;20657;-78
2020/12/02 04:12:39;;;;;;;24.23;8.15;;;3.60;1.00;;;;;;5074560;28;20167;-76
2020/12/02 04:15:06;;;;;;;16.13;7.03;;;3.60;1.00;;;;;;5074375;28;20246;-76
2020/12/02 04:17:37;;;;;;;21.08;8.45;;;3.60;1.00;;;;;;5074644;28;20457;-76
2020/12/02 04:20:04;;;;;;;20.80;7.80;;;3.60;1.00;;;;;;5094455;28;20628;-76
2020/12/02 04:22:50;;;;;;;19.88;7.85;;;3.60;1.00;;;;;;5093504;28;20246;-76
2020/12/02 04:25:27;;;;;;;19.08;7.10;;;3.60;1.00;;;;;;5094542;28;20238;-76
2020/12/02 04:27:53;;;;;;;19.88;7.80;;;3.60;1.00;;;;;;5091737;28;20310;-75
2020/12/02 04:30:20;;;;;;;24.13;9.10;;;3.60;1.00;;;;;;5082283;28;20166;-76
2020/12/02 04:32:55;;;;;;;19.52;7.43;;;3.70;1.00;;;;;;5094152;28;20628;-76
2020/12/02 04:35:22;;;;;;;18.25;7.90;;;3.60;1.00;;;;;;5094351;28;20182;-76
2020/12/02 04:38:01;;;;;;;18.35;7.63;;;3.60;1.00;;;;;;5093323;28;20202;-76
2020/12/02 04:40:49;;;;;;;20.42;7.85;;;3.60;1.00;;;;;;5093222;28;20518;-76
2020/12/02 04:43:32;;;;;;;19.15;8.38;;;3.60;1.00;;;;;;5094054;28;20168;-76
2020/12/02 04:46:09;;;;;;;24.60;7.20;;;3.60;1.00;;;;;;5094070;28;20169;-76
2020/12/02 04:48:35;;;;;;;21.02;7.40;;;3.50;1.00;;;;;;5094271;28;20184;-76
2020/12/02 04:51:06;;;;;;;22.23;8.50;;;3.50;1.00;;;;;;5092737;28;20174;-76
2020/12/02 04:53:39;;;;;;;24.98;8.07;;;3.50;1.00;;;;;;5084989;28;20178;-76
2020/12/02 04:56:14;;;;;;;20.65;7.78;;;3.60;1.00;;;;;;5089161;28;20607;-76
2020/12/02 04:58:40;;;;;;;22.23;8.82;;;3.60;1.00;;;;;;5089674;28;20174;-76
2020/12/02 05:01:32;;;;;;;20.33;7.30;;;3.60;1.00;;;;;;5088957;28;20173;-76
2020/12/02 05:04:03;;;;;;;19.70;8.30;;;3.60;1.00;;;;;;5079739;28;20193;-76
2020/12/02 05:06:41;;;;;;;24.23;8.43;;;3.60;1.00;;;;;;5084823;28;20176;-76
2020/12/02 05:09:10;;;;;;;18.23;8.18;;;3.70;1.00;;;;;;5069519;28;20163;-76
2020/12/02 05:12:14;;;;;;;18.50;7.43;;;3.70;1.00;;;;;;5076267;28;20160;-76
2020/12/02 05:14:49;;;;;;;22.10;8.10;;;3.70;1.00;;;;;;5000873;28;20260;-76
2020/12/02 05:17:31;;;;;;;24.10;8.63;;;3.70;1.00;;;;;;5004849;28;20212;-76
2020/12/02 05:20:15;;;;;;;18.85;8.45;;;3.60;1.00;;;;;;5011934;28;20157;-76
2020/12/02 05:22:46;;;;;;;29.75;9.15;;;3.60;1.00;;;;;;5011314;28;20169;-76
2020/12/02 05:25:30;;;;;;;18.20;7.65;;;3.60;1.00;;;;;;5011361;28;20185;-76
2020/12/02 05:28:18;;;;;;;16.83;6.80;;;3.60;1.00;;;;;;5011782;28;20552;-76
2020/12/02 05:31:20;;;;;;;16.10;7.60;;;3.60;1.00;;;;;;5011446;28;20235;-77
2020/12/02 05:34:06;;;;;;;17.48;7.43;;;3.60;1.00;;;;;;4933998;29;20195;-77
2020/12/02 05:36:35;;;;;;;18.27;8.50;;;3.60;1.00;;;;;;4937173;29;20199;-77
2020/12/02 05:39:41;;;;;;;17.98;8.38;;;3.60;1.00;;;;;;4937418;29;20196;-77
2020/12/02 05:42:32;;;;;;;16.30;8.00;;;3.60;1.00;;;;;;4881474;29;20182;-78
2020/12/02 05:45:05;;;;;;;19.52;8.30;;;3.60;1.00;;;;;;4881246;29;20236;-77
2020/12/02 05:47:37;;;;;;;19.08;8.20;;;3.60;1.00;;;;;;4880636;29;20761;-77
2020/12/02 05:50:14;;;;;;;23.10;8.05;;;3.60;1.00;;;;;;4897732;29;20777;-77
2020/12/02 05:53:25;;;;;;;19.58;8.60;;;3.60;1.00;;;;;;4902978;29;20231;-77
2020/12/02 05:56:09;;;;;;;15.90;7.43;;;3.70;1.00;;;;;;4881513;29;20638;-77
2020/12/02 05:58:45;;;;;;;17.88;7.75;;;3.70;1.00;;;;;;4900150;29;20209;-77
2020/12/02 06:01:19;;;;;;;19.70;7.68;;;3.60;1.00;;;;;;4886439;29;20686;-78
2020/12/02 06:04:10;;;;;;;18.30;7.30;;;3.60;1.00;;;;;;4899372;29;20279;-77
2020/12/02 06:06:56;;;;;;;16.13;7.80;;;3.60;1.00;;;;;;4899340;29;20191;-77
2020/12/02 06:09:43;;;;;;;16.60;7.65;;;3.60;1.00;;;;;;4887784;29;20184;-77
2020/12/02 06:12:22;;;;;;;14.18;7.07;;;3.50;1.00;;;;;;4921405;29;20198;-77
2020/12/02 06:14:50;;;;;;;18.80;7.72;;;3.60;1.00;;;;;;4937572;29;20208;-77
2020/12/02 06:17:34;;;;;;;20.23;7.85;;;3.50;1.00;;;;;;4918018;29;20714;-77
2020/12/02 06:20:14;;;;;;;19.15;8.48;;;3.50;1.00;;;;;;4974415;28;20182;-77
2020/12/02 06:22:47;;;;;;;17.08;7.47;;;3.50;1.00;;;;;;4994537;28;20585;-77
2020/12/02 06:25:48;;;;;;;21.30;7.63;;;3.50;1.00;;;;;;4995350;28;20178;-78
2020/12/02 06:28:29;;;;;;;17.38;7.30;;;3.50;1.00;;;;;;4988590;28;20189;-77
2020/12/02 06:31:16;;;;;;;15.05;6.72;;;3.50;1.00;;;;;;5079258;28;20270;-76
2020/12/02 06:33:44;;;;;;;14.45;7.20;;;3.50;1.00;;;;;;5109610;28;20264;-76
2020/12/02 06:36:19;;;;;;;21.80;8.57;;;3.50;1.00;;;;;;5116141;28;20272;-76
2020/12/02 06:39:08;;;;;;;22.45;8.02;;;3.50;1.00;;;;;;5116628;28;20164;-76
2020/12/02 06:41:44;;;;;;;14.57;6.72;;;3.50;1.00;;;;;;5042028;28;20188;-76
2020/12/02 06:44:13;;;;;;;17.88;7.03;;;3.50;1.00;;;;;;5028802;28;20683;-76
2020/12/02 06:46:55;;;;;;;23.67;8.15;;;3.40;1.00;;;;;;5029106;28;20200;-77
2020/12/02 06:49:32;;;;;;;14.30;5.80;;;3.40;1.00;;;;;;5017091;28;20176;-77
2020/12/02 06:51:59;;;;;;;13.68;7.10;;;3.40;1.00;;;;;;5006613;28;20191;-77
2020/12/02 06:54:39;;;;;;;17.60;7.15;;;3.40;1.00;;;;;;5031813;28;20196;-76
2020/12/02 06:57:23;;;;;;;14.68;6.90;;;3.50;1.00;;;;;;5028132;28;20203;-77
2020/12/02 06:59:58;;;;;;;17.77;7.70;;;3.50;1.00;;;;;;5023314;28;20184;-76
2020/12/02 07:02:40;;;;;;;18.58;6.72;;;3.50;1.00;;;;;;5032218;28;20275;-76
2020/12/02 07:05:31;;;;;;;12.70;6.70;;;3.50;1.00;;;;;;5035969;28;20632;-76
2020/12/02 07:08:25;;;;;;;20.42;6.40;;;3.50;1.00;;;;;;5044398;28;20175;-76
2020/12/02 07:10:59;;;;;;;16.77;7.05;;;3.50;1.00;;;;;;5042244;28;20196;-75
2020/12/02 07:13:28;;;;;;;19.02;7.65;;;3.50;1.00;;;;;;5032737;28;20176;-76
2020/12/02 07:16:28;;;;;;;23.90;7.63;;;3.50;1.00;;;;;;5033181;28;20291;-77
2020/12/02 07:19:05;;;;;;;14.80;6.97;;;3.50;1.00;;;;;;5062154;28;20186;-77
2020/12/02 07:21:43;;;;;;;16.38;6.57;;;3.50;1.00;;;;;;5107400;28;20181;-77
2020/12/02 07:24:35;;;;;;;23.27;7.80;;;3.60;1.00;;;;;;5115613;28;20156;-77
2020/12/02 07:27:00;;;;;;;16.35;6.25;;;3.60;1.00;;;;;;5102763;28;20194;-77
2020/12/02 07:29:28;;;;;;;22.00;6.90;;;3.60;1.00;;;;;;5095421;28;20162;-76
2020/12/02 07:32:00;;;;;;;16.40;6.57;;;3.60;1.00;;;;;;5094985;28;20203;-76
2020/12/02 07:34:28;;;;;;;14.55;6.25;;;3.60;1.00;;;;;;5074456;28;20225;-76
2020/12/02 07:37:03;;;;;;;16.80;6.80;;;3.60;1.00;;;;;;5076458;28;20206;-76
2020/12/02 07:39:30;;;;;;;17.85;7.15;;;3.60;1.00;;;;;;5074836;28;20171;-76
2020/12/02 07:42:20;;;;;;;19.67;6.63;;;3.60;1.00;;;;;;5074680;28;20171;-76
2020/12/02 07:45:00;;;;;;;15.50;6.45;;;3.60;1.00;;;;;;5077400;28;20517;-76
2020/12/02 07:47:27;;;;;;;22.27;7.63;;;3.60;1.00;;;;;;5095133;28;20270;-76
2020/12/02 07:50:22;;;;;;;16.33;6.97;;;3.70;1.00;;;;;;5094781;28;20255;-77
2020/12/02 07:52:55;;;;;;;14.82;6.10;;;3.70;1.00;;;;;;5075276;28;20175;-77
2020/12/02 07:55:32;;;;;;;17.02;7.07;;;3.60;1.00;;;;;;5074583;28;20167;-77
2020/12/02 07:58:02;;;;;;;18.27;7.18;;;3.70;1.00;;;;;;5074738;28;20653;-77
2020/12/02 08:00:44;;;;;;;9.57;5.07;;;3.70;1.00;;;;;;5088578;28;20259;-77
2020/12/02 08:03:33;;;;;;;18.45;7.30;;;3.70;1.00;;;;;;5078568;28;20629;-77
2020/12/02 08:06:10;;;;;;;18.75;6.70;;;3.70;1.00;;;;;;5074167;28;20159;-77
2020/12/02 08:08:36;;;;;;;25.80;7.18;;;3.70;1.00;;;;;;5073134;28;20542;-77
2020/12/02 08:11:05;;;;;;;19.23;7.97;;;3.70;1.00;;;;;;5074026;28;20166;-76
2020/12/02 08:13:50;;;;;;;19.00;7.47;;;3.80;1.00;;;;;;5075654;28;20263;-77
2020/12/02 08:16:41;;;;;;;15.38;6.40;;;3.80;1.00;;;;;;5076770;28;20621;-77
2020/12/02 08:19:10;;;;;;;23.75;7.50;;;3.80;1.00;;;;;;5094074;28;20181;-76
2020/12/02 08:21:37;;;;;;;19.70;7.85;;;3.80;1.00;;;;;;5094329;28;20697;-76
2020/12/02 08:24:19;;;;;;;20.90;8.10;;;3.90;1.00;;;;;;5089643;28;20171;-75
2020/12/02 08:26:47;;;;;;;20.40;8.00;;;3.90;1.00;;;;;;5074064;28;20159;-76
2020/12/02 08:29:23;;;;;;;23.83;8.55;;;4.00;1.00;;;;;;5091063;28;20636;-76
2020/12/02 08:32:29;;;;;;;19.33;8.63;;;4.00;1.00;;;;;;5089831;28;20174;-77
2020/12/02 08:35:30;;;;;;;20.35;7.53;;;4.10;1.00;;;;;;5094005;28;20601;-77
2020/12/02 08:38:37;;;;;;;18.90;7.47;;;4.10;1.00;;;;;;5031604;28;20219;-77
2020/12/02 08:41:22;;;;;;;15.93;6.93;;;4.20;1.00;;;;;;5037262;28;20271;-77
2020/12/02 08:43:48;;;;;;;20.67;8.63;;;4.20;1.00;;;;;;5042613;28;20176;-77
2020/12/02 08:46:25;;;;;;;23.00;8.30;;;4.30;1.00;;;;;;5024572;28;20188;-76
2020/12/02 08:48:56;;;;;;;22.23;7.95;;;4.30;1.00;;;;;;5051499;28;20430;-77
2020/12/02 08:51:23;;;;;;;16.58;7.45;;;4.40;1.00;;;;;;5051614;28;20160;-77
2020/12/02 08:54:08;;;;;;;18.38;7.40;;;4.40;1.00;;;;;;5011897;28;20649;-77
2020/12/02 08:56:44;;;;;;;15.50;6.35;;;4.50;1.00;;;;;;5011904;28;20215;-77
2020/12/02 08:59:14;;;;;;;27.90;8.52;;;4.60;1.00;;;;;;5019788;28;20184;-77
2020/12/02 09:02:14;;;;;;;20.05;7.43;;;4.60;1.00;;;;;;5041478;28;20191;-76
2020/12/02 09:04:42;;;;;;;19.40;7.18;;;4.60;1.00;;;;;;4996831;28;20276;-76
2020/12/02 09:07:08;;;;;;;21.98;8.05;;;4.70;1.00;;;;;;5000143;28;20181;-75
2020/12/02 09:09:37;;;;;;;17.48;7.55;;;4.70;1.00;;;;;;5013385;28;20239;-76
2020/12/02 09:12:08;;;;;;;13.65;6.60;;;4.70;1.00;;;;;;5018691;28;20219;-76
2020/12/02 09:14:38;;;;;;;18.20;8.02;;;4.80;1.00;;;;;;5075643;28;20281;-76
2020/12/02 09:17:03;;;;;;;18.80;7.13;;;4.80;1.00;;;;;;5089810;28;20198;-77
2020/12/02 09:19:37;;;;;;;17.30;7.23;;;4.80;1.00;;;;;;5092313;28;20186;-77
2020/12/02 09:22:20;;;;;;;24.40;6.95;;;4.80;1.00;;;;;;5097483;28;20627;-77
2020/12/02 09:24:55;;;;;;;14.50;7.05;;;4.80;1.00;;;;;;5097695;28;20624;-77
2020/12/02 09:27:27;;;;;;;15.80;6.80;;;4.80;1.00;;;;;;5084082;28;20491;-77
2020/12/02 09:29:53;;;;;;;16.92;7.50;;;4.90;1.00;;;;;;5087898;28;20171;-77
2020/12/02 09:32:20;;;;;;;11.70;6.73;;;4.90;1.00;;;;;;5084884;28;20751;-76
2020/12/02 09:34:46;;;;;;;14.73;7.22;;;4.90;1.00;;;;;;5077020;28;20910;-76
2020/12/02 09:37:25;;;;;;;11.63;6.75;;;4.90;1.00;;;;;;5105256;28;20297;-76
2020/12/02 09:39:55;;;;;;;16.83;6.80;;;5.00;1.00;;;;;;5084249;28;20158;-76
2020/12/02 09:42:49;;;;;;;17.02;7.18;;;5.00;1.00;;;;;;5097349;28;20159;-76
2020/12/02 09:46:03;;;;;;;20.95;7.70;;;4.90;1.00;;;;;;5078311;28;20183;-76
2020/12/02 09:48:32;;;;;;;14.50;6.90;;;5.00;1.00;;;;;;5015451;28;20188;-76
2020/12/02 09:51:18;;;;;;;20.35;8.65;;;4.90;1.00;;;;;;5013665;28;20272;-76
2020/12/02 09:53:49;;;;;;;20.33;8.23;;;5.00;1.00;;;;;;5008764;28;20252;-76
2020/12/02 09:56:28;;;;;;;19.70;8.10;;;5.00;1.00;;;;;;5003053;28;20181;-76
2020/12/02 09:59:10;;;;;;;16.83;6.82;;;5.10;1.00;;;;;;5006335;28;20193;-76
2020/12/02 10:02:14;;;;;;;15.20;7.60;;;5.00;1.00;;;;;;5012485;28;20629;-76
2020/12/02 10:05:07;;;;;;;15.27;6.85;;;5.10;1.00;;;;;;4949994;29;20172;-76
2020/12/02 10:08:07;;;;;;;23.00;7.35;;;5.20;1.00;;;;;;4948726;29;20183;-77
2020/12/02 10:10:59;;;;;;;28.33;7.70;;;5.20;1.00;;;;;;4937105;29;20198;-77
2020/12/02 10:13:56;;;;;;;31.40;8.35;;;4.50;1.00;;;;;;4923109;29;20558;-77
2020/12/02 10:17:15;;;;;;;19.05;8.10;;;5.30;1.00;;;;;;4955095;29;20202;-77
2020/12/02 10:23:00;;;;;;;20.30;8.20;;;5.30;1.00;;;;;;4939457;29;20195;-76
2020/12/02 10:26:10;;;;;;;23.42;8.70;;;5.30;1.00;;;;;;4974875;28;20630;-76
2020/12/02 10:28:52;;;;;;;14.43;7.20;;;5.30;1.00;;;;;;4967138;28;20194;-76
2020/12/02 10:31:25;;;;;;;16.35;7.03;;;5.30;1.00;;;;;;4972438;28;20185;-77
2020/12/02 10:34:04;;;;;;;21.33;7.40;;;5.30;1.00;;;;;;4975894;28;20166;-80
2020/12/02 10:36:41;;;;;;;23.25;7.85;;;5.20;1.00;;;;;;5011206;28;20236;-76
2020/12/02 10:39:12;;;;;;;15.45;6.93;;;5.20;1.00;;;;;;4997117;28;20188;-74
2020/12/02 10:41:57;;;;;;;18.38;7.70;;;5.30;1.00;;;;;;5002913;28;20193;-74
2020/12/02 10:44:41;;;;;;;16.20;8.10;;;5.30;1.00;;;;;;4998999;28;20539;-73
2020/12/02 10:47:37;;;;;;;14.13;7.20;;;5.30;1.00;;;;;;4997071;28;20248;-74
2020/12/02 10:50:08;;;;;;;18.92;8.80;;;5.30;1.00;;;;;;5010072;28;20224;-74
2020/12/02 10:52:34;;;;;;;20.80;7.95;;;5.40;1.00;;;;;;5012772;28;20221;-74
2020/12/02 10:55:01;;;;;;;18.77;7.87;;;5.30;1.00;;;;;;5036513;28;20902;-74
2020/12/02 10:57:27;;;;;;;15.35;7.57;;;5.40;1.00;;;;;;5075268;28;20222;-74
2020/12/02 10:59:58;;;;;;;19.52;8.40;;;5.30;1.00;;;;;;5080727;28;20179;-75
2020/12/02 11:02:27;;;;;;;17.38;8.50;;;5.30;1.00;;;;;;5075498;28;20185;-76
2020/12/02 11:04:54;;;;;;;15.90;7.20;;;5.40;1.00;;;;;;5075141;28;20221;-76
2020/12/02 11:07:44;;;;;;;21.98;8.07;;;5.40;1.00;;;;;;5089910;28;20192;-76
2020/12/02 11:10:27;;;;;;;26.15;8.07;;;5.40;1.00;;;;;;5089288;28;20178;-77
2020/12/02 11:13:00;;;;;;;19.70;8.00;;;5.30;1.00;;;;;;5100182;27;20553;-76
2020/12/02 11:15:34;;;;;;;18.90;8.90;;;5.10;1.00;;;;;;5091722;28;20288;-76
2020/12/02 11:18:20;;;;;;;14.43;7.03;;;5.20;1.00;;;;;;5082072;28;20202;-75
2020/12/02 11:21:04;;;;;;;17.35;8.30;;;5.20;1.00;;;;;;5083322;28;20230;-74
2020/12/02 11:23:59;;;;;;;21.88;8.38;;;5.30;1.00;;;;;;5093662;28;20178;-74
2020/12/02 11:26:29;;;;;;;20.08;8.77;;;5.20;1.00;;;;;;5075918;28;20163;-74
2020/12/02 11:28:57;;;;;;;14.60;7.65;;;5.30;1.00;;;;;;5081593;28;20653;-74
2020/12/02 11:31:55;;;;;;;16.50;8.15;;;5.30;1.00;;;;;;5082343;28;20253;-78
2020/12/02 11:34:49;;;;;;;23.67;8.13;;;5.30;1.00;;;;;;5093390;28;20186;-78
2020/12/02 11:37:35;;;;;;;14.50;7.75;;;5.30;1.00;;;;;;5083375;28;20664;-78
2020/12/02 11:40:13;;;;;;;18.80;7.95;;;5.20;1.00;;;;;;5094331;28;20182;-79
2020/12/02 11:43:02;;;;;;;38.53;8.20;;;5.30;1.00;;;;;;5080447;28;20173;-79
2020/12/02 11:45:56;;;;;;;22.10;8.52;;;5.20;1.00;;;;;;5074220;28;20163;-79
2020/12/02 11:48:32;;;;;;;21.90;8.90;;;5.20;1.00;;;;;;5090489;28;20652;-74
2020/12/02 11:51:24;;;;;;;21.48;8.85;;;5.30;1.00;;;;;;5081840;28;20175;-74
2020/12/02 11:53:56;;;;;;;19.05;8.05;;;5.30;1.00;;;;;;5075491;28;20175;-74
2020/12/02 11:56:41;;;;;;;20.05;7.65;;;5.20;1.00;;;;;;5075015;28;20217;-74
2020/12/02 11:59:21;;;;;;;21.10;8.77;;;5.20;1.00;;;;;;5093461;28;20178;-74
2020/12/02 12:01:55;;;;;;;16.45;7.75;;;5.20;1.00;;;;;;5089818;28;20163;-74
2020/12/02 12:04:43;;;;;;;19.02;8.50;;;5.20;1.00;;;;;;5074540;28;20171;-78
2020/12/02 12:07:15;;;;;;;19.58;7.97;;;5.30;1.00;;;;;;5073857;28;20258;-78
2020/12/02 12:09:47;;;;;;;18.83;8.50;;;5.30;1.00;;;;;;5082496;28;20192;-79
2020/12/02 12:12:52;;;;;;;32.20;8.65;;;5.30;1.00;;;;;;5105029;28;20219;-78
2020/12/02 12:15:44;;;;;;;21.60;8.98;;;5.20;1.00;;;;;;5088468;28;20178;-78
2020/12/02 12:18:40;;;;;;;20.73;8.88;;;5.10;1.00;;;;;;5081784;28;20203;-77
2020/12/02 12:21:37;;;;;;;19.77;7.60;;;5.10;1.00;;;;;;5073855;28;20204;-79
2020/12/02 12:24:17;;;;;;;20.95;8.05;;;5.10;1.00;;;;;;4976122;28;20188;-78
2020/12/02 12:26:56;;;;;;;22.10;8.43;;;5.10;1.00;;;;;;4995584;28;20193;-79
2020/12/02 12:29:21;;;;;;;24.67;8.95;;;5.10;1.00;;;;;;4978171;28;20183;-78
2020/12/02 12:32:06;;;;;;;18.03;8.23;;;5.20;1.00;;;;;;5004698;28;20177;-78
2020/12/02 12:34:58;;;;;;;14.98;7.20;;;5.20;1.00;;;;;;5028813;28;20227;-78
2020/12/02 12:37:28;;;;;;;22.65;8.95;;;5.20;1.00;;;;;;4987538;28;20327;-78
2020/12/02 12:40:21;;;;;;;16.83;7.65;;;5.20;1.00;;;;;;4999133;28;20166;-78
2020/12/02 12:43:05;;;;;;;20.90;8.88;;;5.20;1.00;;;;;;4998502;28;20169;-78
2020/12/02 12:45:43;;;;;;;17.80;8.55;;;5.20;1.00;;;;;;4996748;28;20192;-78
2020/12/02 12:48:14;;;;;;;21.65;8.90;;;5.20;1.00;;;;;;4992115;28;20185;-78
2020/12/02 12:50:46;;;;;;;17.52;8.35;;;5.20;1.00;;;;;;4992753;28;20265;-78
2020/12/02 12:53:17;;;;;;;22.55;8.05;;;5.10;1.00;;;;;;4998052;28;20181;-78
2020/12/02 12:55:44;;;;;;;22.48;9.05;;;5.10;1.00;;;;;;5019990;28;20179;-78
2020/12/02 12:58:17;;;;;;;26.73;9.07;;;5.10;1.00;;;;;;5001360;28;20732;-78
2020/12/02 13:00:49;;;;;;;24.13;8.25;;;5.10;1.00;;;;;;5030185;28;20665;-78
2020/12/02 13:03:22;;;;;;;21.90;8.38;;;5.10;1.00;;;;;;5084860;28;20177;-78
2020/12/02 13:06:09;;;;;;;15.75;7.88;;;5.10;1.00;;;;;;5090313;28;20209;-78
2020/12/02 13:08:48;;;;;;;14.73;6.97;;;5.00;1.00;;;;;;5074033;28;20155;-78
2020/12/02 13:11:52;;;;;;;14.93;7.07;;;5.00;1.00;;;;;;5082832;28;20171;-78
2020/12/02 13:14:26;;;;;;;18.15;7.20;;;4.90;1.00;;;;;;5051178;28;20218;-78
2020/12/02 13:17:05;;;;;;;14.82;7.68;;;4.90;1.00;;;;;;5051418;28;20217;-78
2020/12/02 13:19:48;;;;;;;16.25;6.90;;;4.90;1.00;;;;;;5059997;28;20290;-74
2020/12/02 13:22:45;;;;;;;17.60;8.20;;;4.90;1.00;;;;;;5068844;28;20209;-74
2020/12/02 13:25:35;;;;;;;17.00;7.75;;;4.90;1.00;;;;;;4997413;28;20186;-75
2020/12/02 13:28:14;;;;;;;18.70;7.13;;;4.90;1.00;;;;;;5011305;28;20239;-74
2020/12/02 13:30:56;;;;;;;15.25;6.78;;;4.90;1.00;;;;;;5011195;28;20188;-75
2020/12/02 13:33:41;;;;;;;18.17;8.05;;;4.90;1.00;;;;;;5011134;28;20192;-75
2020/12/02 13:36:21;;;;;;;15.90;7.55;;;4.90;1.00;;;;;;5011221;28;20271;-75
2020/12/02 13:38:47;;;;;;;19.02;7.72;;;4.90;1.00;;;;;;5010419;28;20205;-75
2020/12/02 13:41:25;;;;;;;23.63;8.90;;;4.90;1.00;;;;;;5011463;28;20180;-76
2020/12/02 13:44:04;;;;;;;14.10;7.40;;;4.90;1.00;;;;;;5011174;28;20243;-78
2020/12/02 13:46:30;;;;;;;12.52;6.97;;;4.80;1.00;;;;;;5011304;28;20686;-77
2020/12/02 13:49:10;;;;;;;18.57;6.97;;;4.70;1.00;;;;;;5010678;28;20271;-78
2020/12/02 13:52:02;;;;;;;18.77;8.05;;;4.70;1.00;;;;;;5027114;28;20443;-73
2020/12/02 13:54:48;;;;;;;13.75;5.82;;;4.70;1.00;;;;;;5028248;28;20311;-74
2020/12/02 13:57:26;;;;;;;15.63;6.60;;;4.70;1.00;;;;;;5034554;28;20647;-75
2020/12/02 14:00:12;;;;;;;15.00;7.20;;;4.70;1.00;;;;;;5013602;28;20238;-75
2020/12/02 14:02:43;;;;;;;16.63;7.68;;;4.70;1.00;;;;;;5062440;28;20693;-73